Time;durP1;ratioP1;P1;durP2;ratioP2;P2;SDS_P1;SDS_P2;PMS_P1;PMS_P2;Temp;Humidity;BMP_temperature;BMP_pressure;BME280_temperature;BME280_humidity;BME280_pressure;Samples;Min_cycle;Max_cycle;Signal;HPM_P1;HPM_P2
2022/08/15 00:02:21;;;;;;;9.57;8.63;;;;;;;;;;5093614;28;20076;-75
2022/08/15 00:05:01;;;;;;;10.05;9.05;;;;;;;;;;5092241;28;20080;-75
2022/08/15 00:07:30;;;;;;;10.60;9.57;;;;;;;;;;5081823;28;20130;-76
2022/08/15 00:10:15;;;;;;;13.38;9.65;;;;;;;;;;5073646;28;20515;-76
2022/08/15 00:13:08;;;;;;;13.70;9.15;;;;;;;;;;5083105;28;20078;-75
2022/08/15 00:15:41;;;;;;;12.27;10.98;;;;;;;;;;5093744;28;20614;-75
2022/08/15 00:18:09;;;;;;;12.00;10.80;;;;;;;;;;5074702;28;20507;-75
2022/08/15 00:20:38;;;;;;;12.05;10.85;;;;;;;;;;5080243;28;20148;-75
2022/08/15 00:23:19;;;;;;;10.85;9.77;;;;;;;;;;5079197;28;20083;-75
2022/08/15 00:25:51;;;;;;;13.30;10.50;;;;;;;;;;5087756;28;20075;-75
2022/08/15 00:28:24;;;;;;;13.75;10.30;;;;;;;;;;5092550;28;20059;-75
2022/08/15 00:31:05;;;;;;;11.60;10.40;;;;;;;;;;5093414;28;20505;-75
2022/08/15 00:33:36;;;;;;;10.77;9.70;;;;;;;;;;5093154;28;20062;-75
2022/08/15 00:36:03;;;;;;;11.10;9.98;;;;;;;;;;5088384;28;20052;-75
2022/08/15 00:38:49;;;;;;;11.55;10.40;;;;;;;;;;5092144;28;20048;-75
2022/08/15 00:44:03;;;;;;;12.18;10.98;;;;;;;;;;5090223;28;20055;-76
2022/08/15 00:46:33;;;;;;;12.23;11.02;;;;;;;;;;5094408;28;20056;-76
2022/08/15 00:48:59;;;;;;;11.85;10.55;;;;;;;;;;5094298;28;20053;-77
2022/08/15 00:51:30;;;;;;;11.10;10.05;;;;;;;;;;5092776;28;20447;-76
2022/08/15 00:54:08;;;;;;;14.75;10.23;;;;;;;;;;5094272;28;20179;-76
2022/08/15 00:57:02;;;;;;;10.73;9.73;;;;;;;;;;5073398;28;20053;-76
2022/08/15 00:59:38;;;;;;;12.18;10.60;;;;;;;;;;5085401;28;20049;-75
2022/08/15 01:02:09;;;;;;;11.70;10.35;;;;;;;;;;5084334;28;20118;-76
2022/08/15 01:04:48;;;;;;;11.02;9.95;;;;;;;;;;5079964;28;20049;-76
2022/08/15 01:07:17;;;;;;;11.38;10.15;;;;;;;;;;5090809;28;20139;-75
2022/08/15 01:09:44;;;;;;;11.77;10.57;;;;;;;;;;5091955;28;20048;-75
2022/08/15 01:12:13;;;;;;;11.52;10.43;;;;;;;;;;5090775;28;20052;-76
2022/08/15 01:14:50;;;;;;;11.52;10.43;;;;;;;;;;5089507;28;20049;-75
2022/08/15 01:17:25;;;;;;;11.13;10.02;;;;;;;;;;5091935;28;20501;-76
2022/08/15 01:20:01;;;;;;;11.35;10.30;;;;;;;;;;5090662;28;20052;-75
2022/08/15 01:22:38;;;;;;;11.75;10.63;;;;;;;;;;5087424;28;20048;-75
2022/08/15 01:25:16;;;;;;;11.68;10.57;;;;;;;;;;5084743;28;20060;-75
2022/08/15 01:28:08;;;;;;;11.57;10.48;;;;;;;;;;5089464;28;20060;-75
2022/08/15 01:30:49;;;;;;;11.40;10.18;;;;;;;;;;5085778;28;20510;-75
2022/08/15 01:33:31;;;;;;;11.30;9.85;;;;;;;;;;5086546;28;20500;-76
2022/08/15 01:35:59;;;;;;;10.68;8.93;;;;;;;;;;5096130;28;20052;-75
2022/08/15 01:38:30;;;;;;;13.00;10.50;;;;;;;;;;5092290;28;20057;-75
2022/08/15 01:41:36;;;;;;;9.73;8.82;;;;;;;;;;5092969;28;20060;-76
2022/08/15 01:44:08;;;;;;;9.40;8.48;;;;;;;;;;5074974;28;20057;-75
2022/08/15 01:46:57;;;;;;;9.60;8.43;;;;;;;;;;5091257;28;20059;-76
2022/08/15 01:49:27;;;;;;;9.30;8.40;;;;;;;;;;5080621;28;20049;-76
2022/08/15 01:51:55;;;;;;;9.23;8.23;;;;;;;;;;5079652;28;20052;-76
2022/08/15 01:54:23;;;;;;;9.70;8.30;;;;;;;;;;5090478;28;20056;-75
2022/08/15 01:57:09;;;;;;;9.38;8.48;;;;;;;;;;5091577;28;20506;-75
2022/08/15 01:59:35;;;;;;;8.88;8.07;;;;;;;;;;5079201;28;20492;-75
2022/08/15 02:02:04;;;;;;;9.30;8.48;;;;;;;;;;5088790;28;20055;-76
2022/08/15 02:04:50;;;;;;;11.95;8.43;;;;;;;;;;5098983;28;21098;-76
2022/08/15 02:07:22;;;;;;;9.10;8.23;;;;;;;;;;5078052;28;20531;-76
2022/08/15 02:09:50;;;;;;;8.50;7.25;;;;;;;;;;5090312;28;20049;-76
2022/08/15 02:12:24;;;;;;;7.47;6.78;;;;;;;;;;5072388;28;20056;-76
2022/08/15 02:15:16;;;;;;;8.15;7.32;;;;;;;;;;5089342;28;20122;-76
2022/08/15 02:17:43;;;;;;;7.57;6.82;;;;;;;;;;5089889;28;20057;-76
2022/08/15 02:20:11;;;;;;;9.90;6.60;;;;;;;;;;5080501;28;20057;-76
2022/08/15 02:22:49;;;;;;;7.90;7.05;;;;;;;;;;5080418;28;20057;-77
2022/08/15 02:25:16;;;;;;;8.43;6.97;;;;;;;;;;5086730;28;20062;-76
2022/08/15 02:27:49;;;;;;;7.32;6.63;;;;;;;;;;5090620;28;20076;-76
2022/08/15 02:30:18;;;;;;;7.93;6.43;;;;;;;;;;5088368;28;20115;-76
2022/08/15 02:32:46;;;;;;;7.72;6.85;;;;;;;;;;5079074;28;20049;-75
2022/08/15 02:35:16;;;;;;;7.97;6.65;;;;;;;;;;5085784;28;20049;-75
2022/08/15 02:37:43;;;;;;;7.82;6.32;;;;;;;;;;5089110;28;20056;-75
2022/08/15 02:40:24;;;;;;;7.00;6.32;;;;;;;;;;5090393;28;20048;-75
2022/08/15 02:43:12;;;;;;;8.23;6.63;;;;;;;;;;5088790;28;20059;-75
2022/08/15 02:45:47;;;;;;;7.47;6.78;;;;;;;;;;5089360;28;20059;-75
2022/08/15 02:48:34;;;;;;;8.90;6.07;;;;;;;;;;5077983;28;20056;-76
2022/08/15 02:51:02;;;;;;;7.72;6.93;;;;;;;;;;5073928;28;20084;-76
2022/08/15 02:53:28;;;;;;;9.23;6.95;;;;;;;;;;5082921;28;20059;-76
2022/08/15 02:55:55;;;;;;;7.47;6.63;;;;;;;;;;5087657;28;20095;-75
2022/08/15 02:58:21;;;;;;;7.63;6.93;;;;;;;;;;5091306;28;20131;-75
2022/08/15 03:00:55;;;;;;;6.88;6.15;;;;;;;;;;5091704;28;20190;-75
2022/08/15 03:03:26;;;;;;;8.85;6.43;;;;;;;;;;5091681;28;20141;-75
2022/08/15 03:05:56;;;;;;;7.10;6.45;;;;;;;;;;5087918;28;20064;-75
2022/08/15 03:08:24;;;;;;;7.28;6.57;;;;;;;;;;5093719;28;20058;-75
2022/08/15 03:10:51;;;;;;;6.93;6.32;;;;;;;;;;5092571;28;20506;-74
2022/08/15 03:13:20;;;;;;;6.90;6.30;;;;;;;;;;5091326;28;20049;-75
2022/08/15 03:15:53;;;;;;;7.05;6.30;;;;;;;;;;5082078;28;20107;-75
2022/08/15 03:18:24;;;;;;;7.82;7.03;;;;;;;;;;5115965;28;20048;-75
2022/08/15 03:20:59;;;;;;;8.23;6.00;;;;;;;;;;5088960;28;20053;-76
2022/08/15 03:23:27;;;;;;;8.15;6.60;;;;;;;;;;5095170;28;20051;-76
2022/08/15 03:26:08;;;;;;;7.72;6.75;;;;;;;;;;5090777;28;20055;-76
2022/08/15 03:28:55;;;;;;;7.43;6.75;;;;;;;;;;5093601;27;20055;-76
2022/08/15 03:31:30;;;;;;;6.82;6.13;;;;;;;;;;5093288;28;20106;-76
2022/08/15 03:34:11;;;;;;;7.97;7.18;;;;;;;;;;5085094;28;20055;-75
2022/08/15 03:36:45;;;;;;;7.57;6.75;;;;;;;;;;5078534;28;20144;-75
2022/08/15 03:39:18;;;;;;;7.40;6.53;;;;;;;;;;5085909;28;20499;-75
2022/08/15 03:41:45;;;;;;;6.45;5.85;;;;;;;;;;5093972;28;20052;-75
2022/08/15 03:44:20;;;;;;;;;;;;;;;;;;5078397;28;20111;-75
2022/08/15 03:46:52;;;;;;;7.82;7.03;;;;;;;;;;5092018;28;44096;-75
2022/08/15 03:49:18;;;;;;;8.15;7.13;;;;;;;;;;5094253;28;20052;-75
2022/08/15 03:52:06;;;;;;;7.65;6.60;;;;;;;;;;5094171;28;20063;-77
2022/08/15 03:54:35;;;;;;;7.43;6.57;;;;;;;;;;5094014;28;20052;-76
2022/08/15 03:57:05;;;;;;;7.63;6.82;;;;;;;;;;5082628;28;20576;-75
2022/08/15 03:59:33;;;;;;;8.25;6.85;;;;;;;;;;5094016;28;20060;-76
2022/08/15 04:02:06;;;;;;;6.65;6.05;;;;;;;;;;5093448;28;20056;-75
2022/08/15 04:04:37;;;;;;;7.68;6.97;;;;;;;;;;5088088;28;20436;-76
2022/08/15 04:07:07;;;;;;;7.68;6.63;;;;;;;;;;5082315;28;20056;-75
2022/08/15 04:09:49;;;;;;;6.25;5.65;;;;;;;;;;5093002;28;20064;-76
2022/08/15 04:12:30;;;;;;;6.03;5.43;;;;;;;;;;5085695;28;20057;-75
2022/08/15 04:14:56;;;;;;;6.72;5.30;;;;;;;;;;5082455;28;20059;-75
2022/08/15 04:17:23;;;;;;;6.90;5.85;;;;;;;;;;5091697;28;20058;-75
2022/08/15 04:20:09;;;;;;;7.97;5.20;;;;;;;;;;5087664;28;20064;-75
2022/08/15 04:22:56;;;;;;;6.05;5.45;;;;;;;;;;5088117;28;20059;-75
2022/08/15 04:25:27;;;;;;;6.57;5.63;;;;;;;;;;5092781;28;20651;-75
2022/08/15 04:28:09;;;;;;;6.32;5.68;;;;;;;;;;5093818;28;20060;-75
2022/08/15 04:30:56;;;;;;;6.15;5.55;;;;;;;;;;5075929;28;20049;-75
2022/08/15 04:33:26;;;;;;;6.93;5.82;;;;;;;;;;5106126;28;20502;-74
2022/08/15 04:36:13;;;;;;;6.15;5.55;;;;;;;;;;5092048;28;20518;-74
2022/08/15 04:38:45;;;;;;;9.50;6.90;;;;;;;;;;5093611;28;20048;-75
2022/08/15 04:41:15;;;;;;;7.75;6.07;;;;;;;;;;5094129;28;20060;-75
2022/08/15 04:44:02;;;;;;;7.15;6.53;;;;;;;;;;5091439;28;20064;-74
2022/08/15 04:46:29;;;;;;;7.78;6.53;;;;;;;;;;5091773;28;20118;-74
2022/08/15 04:48:56;;;;;;;7.70;6.35;;;;;;;;;;5099838;27;20044;-75
2022/08/15 04:51:22;;;;;;;8.05;6.30;;;;;;;;;;5083011;28;20052;-74
2022/08/15 04:54:02;;;;;;;9.73;6.40;;;;;;;;;;5090782;28;20040;-74
2022/08/15 04:56:29;;;;;;;8.63;6.75;;;;;;;;;;5087686;28;20056;-75
2022/08/15 04:59:15;;;;;;;9.27;6.80;;;;;;;;;;5081384;28;20522;-75
2022/08/15 05:02:02;;;;;;;6.82;6.10;;;;;;;;;;5073766;28;20053;-75
2022/08/15 05:04:48;;;;;;;7.32;6.63;;;;;;;;;;5089572;28;20056;-75
2022/08/15 05:07:16;;;;;;;8.85;6.63;;;;;;;;;;5092857;28;20059;-73
2022/08/15 05:09:43;;;;;;;7.40;6.70;;;;;;;;;;5090925;28;20051;-73
2022/08/15 05:12:28;;;;;;;;;;;;;;;;;;5076615;28;20087;-75
2022/08/15 05:14:58;;;;;;;6.53;5.93;;;;;;;;;;5091736;28;48071;-75
2022/08/15 05:17:24;;;;;;;8.20;6.85;;;;;;;;;;5092474;28;20060;-75
2022/08/15 05:20:12;;;;;;;9.40;6.18;;;;;;;;;;5091575;28;20054;-76
2022/08/15 05:22:52;;;;;;;7.82;6.68;;;;;;;;;;5073274;28;20053;-74
2022/08/15 05:25:20;;;;;;;8.52;7.72;;;;;;;;;;5077283;28;20056;-73
2022/08/15 05:27:47;;;;;;;7.00;6.40;;;;;;;;;;5093312;28;20052;-74
2022/08/15 05:30:15;;;;;;;10.10;8.23;;;;;;;;;;5093196;28;20057;-74
2022/08/15 05:32:43;;;;;;;8.82;8.02;;;;;;;;;;5091850;28;20135;-74
2022/08/15 05:35:15;;;;;;;8.20;7.40;;;;;;;;;;5092374;28;20060;-76
2022/08/15 05:37:44;;;;;;;9.32;7.20;;;;;;;;;;5077347;28;20057;-73
2022/08/15 05:40:10;;;;;;;10.35;7.85;;;;;;;;;;5093053;28;20056;-76
2022/08/15 05:42:54;;;;;;;9.50;8.43;;;;;;;;;;5092418;28;20048;-77
2022/08/15 05:45:30;;;;;;;9.30;7.90;;;;;;;;;;5086185;28;20107;-77
2022/08/15 05:48:13;;;;;;;13.40;8.13;;;;;;;;;;5096833;28;20060;-76
2022/08/15 05:50:51;;;;;;;10.38;9.38;;;;;;;;;;5088784;28;20420;-77
2022/08/15 05:53:44;;;;;;;11.90;8.82;;;;;;;;;;5090438;28;20066;-77
2022/08/15 05:56:43;;;;;;;17.23;9.38;;;;;;;;;;5078345;28;20071;-77
2022/08/15 05:59:12;;;;;;;10.82;9.52;;;;;;;;;;5076773;28;20819;-67
2022/08/15 06:02:06;;;;;;;9.80;8.82;;;;;;;;;;5087323;28;20055;-73
2022/08/15 06:04:58;;;;;;;12.43;9.40;;;;;;;;;;5093496;28;20502;-78
2022/08/15 06:07:26;;;;;;;17.73;9.30;;;;;;;;;;5088493;28;20488;-75
2022/08/15 06:10:25;;;;;;;11.45;9.52;;;;;;;;;;5084475;28;20064;-77
2022/08/15 06:13:31;;;;;;;9.30;8.32;;;;;;;;;;5093022;28;20065;-76
2022/08/15 06:16:04;;;;;;;9.77;8.63;;;;;;;;;;5048428;28;20134;-74
2022/08/15 06:19:01;;;;;;;10.68;8.98;;;;;;;;;;5086587;28;20052;-72
2022/08/15 06:21:38;;;;;;;10.65;8.27;;;;;;;;;;5092401;28;20055;-74
2022/08/15 06:24:05;;;;;;;12.63;8.43;;;;;;;;;;5099224;28;20435;-72
2022/08/15 06:26:40;;;;;;;12.85;8.10;;;;;;;;;;5093632;28;20108;-72
2022/08/15 06:29:22;;;;;;;10.77;7.33;;;;;;;;;;5091294;28;20052;-79
2022/08/15 06:31:57;;;;;;;10.13;7.05;;;;;;;;;;5090683;28;20283;-69
2022/08/15 06:34:33;;;;;;;8.85;7.07;;;;;;;;;;5089812;28;20114;-70
2022/08/15 06:37:28;;;;;;;7.43;6.30;;;;;;;;;;5086834;28;20413;-71
2022/08/15 06:40:13;;;;;;;16.05;6.70;;;;;;;;;;5076472;28;20290;-73
2022/08/15 06:42:56;;;;;;;7.55;5.28;;;;;;;;;;5072446;28;20053;-75
2022/08/15 06:45:29;;;;;;;5.68;4.60;;;;;;;;;;5086391;28;20135;-73
2022/08/15 06:47:59;;;;;;;5.47;4.55;;;;;;;;;;5082528;28;20092;-72
2022/08/15 06:50:32;;;;;;;7.97;3.80;;;;;;;;;;5081000;28;20052;-72
2022/08/15 06:53:03;;;;;;;3.63;3.33;;;;;;;;;;5095554;28;20063;-72
2022/08/15 06:55:58;;;;;;;4.55;4.07;;;;;;;;;;5094825;28;20060;-73
2022/08/15 06:58:37;;;;;;;6.22;3.90;;;;;;;;;;5076626;28;20041;-72
2022/08/15 07:01:21;;;;;;;4.80;3.40;;;;;;;;;;5094574;28;20052;-72
2022/08/15 07:04:05;;;;;;;4.97;3.92;;;;;;;;;;5087446;28;20079;-74
2022/08/15 07:06:41;;;;;;;4.22;3.20;;;;;;;;;;5085594;28;20052;-75
2022/08/15 07:09:30;;;;;;;5.03;3.35;;;;;;;;;;5080023;28;20056;-73
2022/08/15 07:12:07;;;;;;;2.80;2.50;;;;;;;;;;5094265;28;20060;-72
2022/08/15 07:14:41;;;;;;;5.22;3.10;;;;;;;;;;5095651;28;20926;-73
2022/08/15 07:17:12;;;;;;;3.10;2.78;;;;;;;;;;5094562;28;20454;-75
2022/08/15 07:19:44;;;;;;;4.38;2.55;;;;;;;;;;5095150;28;20056;-73
2022/08/15 07:22:22;;;;;;;3.15;2.72;;;;;;;;;;5084187;28;20468;-72
2022/08/15 07:25:02;;;;;;;4.50;2.50;;;;;;;;;;5094024;28;20052;-75
2022/08/15 07:27:35;;;;;;;2.75;2.33;;;;;;;;;;5094108;28;20052;-73
2022/08/15 07:30:15;;;;;;;4.20;2.60;;;;;;;;;;5095039;28;20595;-77
2022/08/15 07:32:42;;;;;;;2.88;2.13;;;;;;;;;;5081948;28;20049;-80
2022/08/15 07:35:09;;;;;;;8.60;2.55;;;;;;;;;;5075239;28;20531;-79
2022/08/15 07:37:38;;;;;;;4.07;2.45;;;;;;;;;;5075784;28;20088;-80
2022/08/15 07:40:27;;;;;;;7.15;2.60;;;;;;;;;;5074252;28;20578;-74
2022/08/15 07:43:25;;;;;;;4.00;2.15;;;;;;;;;;5084959;28;20059;-77
2022/08/15 07:46:04;;;;;;;5.93;2.55;;;;;;;;;;5093902;28;20088;-76
2022/08/15 07:48:54;;;;;;;2.38;2.17;;;;;;;;;;5074730;28;20049;-74
2022/08/15 07:51:27;;;;;;;3.95;2.65;;;;;;;;;;5074601;28;20107;-78
2022/08/15 07:53:59;;;;;;;3.85;2.60;;;;;;;;;;5084114;28;20084;-76
2022/08/15 07:56:32;;;;;;;4.45;2.40;;;;;;;;;;5087930;28;20131;-78
2022/08/15 07:59:33;;;;;;;3.17;2.40;;;;;;;;;;5095557;28;20053;-77
2022/08/15 08:02:23;;;;;;;4.47;3.10;;;;;;;;;;5080487;28;20060;-72
2022/08/15 08:05:02;;;;;;;2.70;2.40;;;;;;;;;;5093443;28;20052;-71
2022/08/15 08:07:35;;;;;;;3.88;2.38;;;;;;;;;;5085796;28;20071;-73
2022/08/15 08:10:14;;;;;;;6.93;2.70;;;;;;;;;;5088518;28;20048;-72
2022/08/15 08:12:54;;;;;;;3.78;2.85;;;;;;;;;;5075304;28;20077;-69
2022/08/15 08:15:25;;;;;;;3.15;2.03;;;;;;;;;;5079696;28;20505;-70
2022/08/15 08:18:35;;;;;;;2.83;2.50;;;;;;;;;;5077458;28;20517;-69
2022/08/15 08:21:04;;;;;;;8.52;2.67;;;;;;;;;;5105835;28;20060;-69
2022/08/15 08:23:38;;;;;;;6.57;2.47;;;;;;;;;;5105258;28;20060;-70
2022/08/15 08:26:29;;;;;;;3.40;2.40;;;;;;;;;;5096513;28;20492;-72
2022/08/15 08:28:56;;;;;;;3.55;2.90;;;;;;;;;;5093614;28;20057;-70
2022/08/15 08:31:46;;;;;;;5.68;2.63;;;;;;;;;;5083340;28;20058;-72
2022/08/15 08:34:32;;;;;;;4.22;2.80;;;;;;;;;;5093918;28;20075;-71
2022/08/15 08:37:34;;;;;;;4.28;2.70;;;;;;;;;;5093410;28;20072;-70
2022/08/15 08:43:14;;;;;;;2.97;2.40;;;;;;;;;;5073209;28;20148;-71
2022/08/15 08:45:43;;;;;;;2.95;2.40;;;;;;;;;;5086695;28;20056;-73
2022/08/15 08:48:39;;;;;;;4.65;2.60;;;;;;;;;;5108633;28;20056;-71
2022/08/15 08:51:09;;;;;;;2.95;2.63;;;;;;;;;;5078797;28;20055;-69
2022/08/15 08:53:39;;;;;;;6.07;3.63;;;;;;;;;;5091720;28;20052;-73
2022/08/15 08:56:17;;;;;;;3.72;2.75;;;;;;;;;;5092772;28;20060;-70
2022/08/15 08:59:08;;;;;;;4.40;2.75;;;;;;;;;;5072969;28;20504;-69
2022/08/15 09:01:37;;;;;;;4.78;2.35;;;;;;;;;;5073397;28;20053;-69
2022/08/15 09:04:11;;;;;;;6.78;2.78;;;;;;;;;;5092854;28;20050;-73
2022/08/15 09:06:39;;;;;;;7.20;2.88;;;;;;;;;;5093154;28;20044;-72
2022/08/15 09:09:28;;;;;;;2.60;2.40;;;;;;;;;;5082359;28;20052;-73
2022/08/15 09:12:01;;;;;;;4.10;3.00;;;;;;;;;;5091231;28;20057;-73
2022/08/15 09:14:34;;;;;;;4.60;2.95;;;;;;;;;;5083490;28;20053;-73
2022/08/15 09:17:21;;;;;;;3.22;2.60;;;;;;;;;;5089056;28;20052;-73
2022/08/15 09:20:01;;;;;;;5.40;2.85;;;;;;;;;;5092094;28;20106;-72
2022/08/15 09:22:27;;;;;;;3.22;2.70;;;;;;;;;;5080795;28;20060;-71
2022/08/15 09:24:53;;;;;;;2.78;2.50;;;;;;;;;;5081824;28;20059;-73
2022/08/15 09:27:57;;;;;;;4.68;2.65;;;;;;;;;;5092589;28;20060;-72
2022/08/15 09:30:26;;;;;;;3.20;2.85;;;;;;;;;;5079062;28;20052;-72
2022/08/15 09:33:13;;;;;;;4.50;2.80;;;;;;;;;;5087085;28;20049;-72
2022/08/15 09:35:43;;;;;;;2.85;2.50;;;;;;;;;;5090366;28;20102;-73
2022/08/15 09:38:22;;;;;;;2.72;2.50;;;;;;;;;;5092311;28;20560;-74
2022/08/15 09:40:52;;;;;;;;;;;;;;;;;;5088564;28;20057;-69
2022/08/15 09:43:51;;;;;;;5.20;2.63;;;;;;;;;;5089469;28;43989;-69
2022/08/15 09:46:35;;;;;;;3.97;3.30;;;;;;;;;;5093937;28;20052;-72
2022/08/15 09:49:16;;;;;;;5.68;3.33;;;;;;;;;;5093923;28;20063;-72
2022/08/15 09:51:47;;;;;;;5.95;3.42;;;;;;;;;;5094020;28;20063;-73
2022/08/15 09:54:18;;;;;;;5.00;3.00;;;;;;;;;;5100742;28;20513;-71
2022/08/15 09:57:19;;;;;;;4.15;3.00;;;;;;;;;;5095893;28;20041;-76
2022/08/15 09:59:49;;;;;;;3.80;2.72;;;;;;;;;;5109536;28;20108;-78
2022/08/15 10:02:16;;;;;;;4.20;2.97;;;;;;;;;;5102264;27;20028;-73
2022/08/15 10:05:02;;;;;;;4.97;3.47;;;;;;;;;;5104950;28;20044;-71
2022/08/15 10:07:41;;;;;;;4.63;2.85;;;;;;;;;;5114725;28;20093;-75
2022/08/15 10:10:29;;;;;;;5.38;3.45;;;;;;;;;;5103654;28;20048;-76
2022/08/15 10:13:09;;;;;;;7.55;3.47;;;;;;;;;;5095236;28;20570;-73
2022/08/15 10:15:40;;;;;;;6.10;2.90;;;;;;;;;;5086480;28;20059;-73
2022/08/15 10:18:08;;;;;;;3.45;2.88;;;;;;;;;;5087149;28;20488;-74
2022/08/15 10:20:41;;;;;;;4.43;3.42;;;;;;;;;;5092339;28;20056;-73
2022/08/15 10:23:13;;;;;;;4.63;3.60;;;;;;;;;;5092537;28;20498;-75
2022/08/15 10:26:00;;;;;;;6.97;3.47;;;;;;;;;;5093044;28;20052;-72
2022/08/15 10:28:27;;;;;;;6.85;3.55;;;;;;;;;;5109046;28;20468;-71
2022/08/15 10:31:07;;;;;;;8.40;4.00;;;;;;;;;;5090773;28;20052;-72
2022/08/15 10:33:33;;;;;;;4.00;3.50;;;;;;;;;;5090554;28;20093;-72
2022/08/15 10:36:13;;;;;;;6.07;3.72;;;;;;;;;;5084531;28;20084;-72
2022/08/15 10:39:13;;;;;;;6.40;4.00;;;;;;;;;;5074750;28;20059;-72
2022/08/15 10:41:45;;;;;;;5.10;3.92;;;;;;;;;;5075681;28;20069;-72
2022/08/15 10:44:20;;;;;;;7.18;4.70;;;;;;;;;;5090621;28;20052;-71
2022/08/15 10:47:01;;;;;;;7.65;4.70;;;;;;;;;;5093513;28;20072;-71
2022/08/15 10:49:56;;;;;;;7.00;3.90;;;;;;;;;;5087184;28;20485;-71
2022/08/15 10:52:43;;;;;;;6.37;4.67;;;;;;;;;;5072145;28;20052;-70
2022/08/15 10:55:20;;;;;;;6.25;4.55;;;;;;;;;;5094389;28;20342;-70
2022/08/15 10:58:12;;;;;;;6.03;5.10;;;;;;;;;;5085793;27;20049;-70
2022/08/15 11:00:46;;;;;;;8.40;5.60;;;;;;;;;;5111267;28;20048;-70
2022/08/15 11:03:32;;;;;;;8.52;5.60;;;;;;;;;;5095369;28;20048;-70
2022/08/15 11:06:21;;;;;;;7.82;5.50;;;;;;;;;;5084830;28;20061;-70
2022/08/15 11:08:54;;;;;;;8.48;6.25;;;;;;;;;;5094340;28;20139;-72
2022/08/15 11:11:22;;;;;;;8.98;5.75;;;;;;;;;;5095008;28;20435;-72
2022/08/15 11:13:52;;;;;;;7.90;5.50;;;;;;;;;;5075871;28;20061;-74
2022/08/15 11:16:29;;;;;;;6.60;5.80;;;;;;;;;;5092505;28;20056;-74
2022/08/15 11:19:32;;;;;;;8.98;5.75;;;;;;;;;;5092736;28;20049;-68
2022/08/15 11:22:39;;;;;;;7.65;6.80;;;;;;;;;;5071556;28;20564;-72
2022/08/15 11:25:14;;;;;;;9.88;7.13;;;;;;;;;;5089354;28;20083;-72
2022/08/15 11:27:40;;;;;;;8.93;7.30;;;;;;;;;;5085977;28;20056;-70
2022/08/15 11:30:24;;;;;;;10.88;7.10;;;;;;;;;;5080602;28;20060;-70
2022/08/15 11:33:16;;;;;;;8.53;7.27;;;;;;;;;;5085190;28;20163;-71
2022/08/15 11:35:48;;;;;;;8.77;7.45;;;;;;;;;;5075272;28;20069;-71
2022/08/15 11:38:16;;;;;;;10.90;7.22;;;;;;;;;;5094306;28;20056;-72
2022/08/15 11:40:52;;;;;;;10.57;7.65;;;;;;;;;;5078877;28;20476;-71
2022/08/15 11:43:20;;;;;;;8.02;7.05;;;;;;;;;;5079078;28;20474;-71
2022/08/15 11:45:48;;;;;;;10.27;7.47;;;;;;;;;;5078979;28;20056;-72
2022/08/15 11:48:22;;;;;;;11.90;7.15;;;;;;;;;;5091258;28;20088;-73
2022/08/15 11:51:10;;;;;;;13.82;7.70;;;;;;;;;;5089989;28;20040;-71
2022/08/15 11:53:59;;;;;;;8.18;6.90;;;;;;;;;;5090634;28;20057;-70
2022/08/15 11:56:41;;;;;;;10.40;7.25;;;;;;;;;;5079504;28;20085;-72
2022/08/15 11:59:18;;;;;;;11.10;6.30;;;;;;;;;;5084291;28;20052;-70
2022/08/15 12:01:58;;;;;;;6.75;5.82;;;;;;;;;;5085031;28;20572;-70
2022/08/15 12:04:31;;;;;;;10.68;6.38;;;;;;;;;;5089234;28;20516;-72
2022/08/15 12:07:23;;;;;;;11.05;7.18;;;;;;;;;;5082664;28;20048;-72
2022/08/15 12:09:54;;;;;;;9.38;6.78;;;;;;;;;;5093165;28;20057;-73
2022/08/15 12:12:29;;;;;;;12.93;6.93;;;;;;;;;;5088137;28;20049;-72
2022/08/15 12:15:13;;;;;;;9.32;7.30;;;;;;;;;;5092897;28;20060;-70
2022/08/15 12:17:48;;;;;;;;;;;;;;;;;;5092117;28;20057;-70
2022/08/15 12:20:45;;;;;;;10.18;6.78;;;;;;;;;;5097025;28;43773;-72
2022/08/15 12:23:19;;;;;;;7.38;6.55;;;;;;;;;;5094441;27;20059;-70
2022/08/15 12:25:53;;;;;;;8.65;6.93;;;;;;;;;;5093466;28;20055;-71
2022/08/15 12:28:20;;;;;;;8.02;6.43;;;;;;;;;;5083028;28;20053;-70
2022/08/15 12:31:21;;;;;;;10.77;7.28;;;;;;;;;;5092631;28;20063;-69
2022/08/15 12:33:48;;;;;;;11.25;7.03;;;;;;;;;;5086825;28;20102;-72
2022/08/15 12:36:18;;;;;;;10.07;7.50;;;;;;;;;;5079389;28;20067;-71
2022/08/15 12:39:05;;;;;;;8.90;7.47;;;;;;;;;;5091491;28;20052;-71
2022/08/15 12:41:35;;;;;;;10.95;7.30;;;;;;;;;;5091698;28;20052;-72
2022/08/15 12:44:25;;;;;;;12.25;8.35;;;;;;;;;;5092261;27;20044;-70
2022/08/15 12:46:55;;;;;;;13.35;9.70;;;;;;;;;;5078488;28;20048;-71
2022/08/15 12:49:22;;;;;;;10.57;9.38;;;;;;;;;;5091334;28;20083;-72
2022/08/15 12:51:49;;;;;;;9.60;7.80;;;;;;;;;;5078563;28;20052;-70
2022/08/15 12:54:17;;;;;;;9.45;7.80;;;;;;;;;;5085119;28;20061;-69
2022/08/15 12:56:53;;;;;;;8.80;7.72;;;;;;;;;;5085932;28;20053;-70
2022/08/15 12:59:38;;;;;;;;;;;;;;;;;;5093237;28;20052;-69
2022/08/15 13:02:04;;;;;;;8.63;7.72;;;;;;;;;;5077542;28;45661;-69
2022/08/15 13:04:33;;;;;;;9.02;6.65;;;;;;;;;;5085061;28;20066;-73
2022/08/15 13:07:20;;;;;;;8.45;6.15;;;;;;;;;;5079017;28;20057;-72
2022/08/15 13:09:59;;;;;;;9.70;6.68;;;;;;;;;;5091544;28;20144;-71
2022/08/15 13:12:45;;;;;;;9.13;6.60;;;;;;;;;;5083177;28;20514;-72
2022/08/15 13:15:11;;;;;;;7.30;6.35;;;;;;;;;;5090042;28;20377;-75
2022/08/15 13:17:38;;;;;;;11.57;6.55;;;;;;;;;;5089693;28;21973;-70
2022/08/15 13:26:18;;;;;;;10.67;7.03;;;;;;;;;;5089561;28;20055;-72
2022/08/15 13:28:57;;;;;;;7.22;5.80;;;;;;;;;;5090560;28;20142;-71
2022/08/15 13:31:24;;;;;;;8.05;6.10;;;;;;;;;;5090032;28;20049;-71
2022/08/15 13:33:53;;;;;;;7.80;6.15;;;;;;;;;;5086029;28;20061;-71
2022/08/15 13:36:23;;;;;;;7.65;6.47;;;;;;;;;;5088095;28;20133;-69
2022/08/15 13:38:56;;;;;;;9.52;6.57;;;;;;;;;;5087862;28;20061;-71
2022/08/15 13:41:25;;;;;;;9.40;6.10;;;;;;;;;;5089151;28;20110;-70
2022/08/15 13:44:13;;;;;;;8.82;5.68;;;;;;;;;;5085978;28;20048;-71
2022/08/15 13:46:57;;;;;;;11.43;6.57;;;;;;;;;;5104823;28;20109;-70
2022/08/15 13:49:23;;;;;;;8.50;6.38;;;;;;;;;;5087061;28;20053;-72
2022/08/15 13:51:52;;;;;;;11.10;6.22;;;;;;;;;;5084263;28;20059;-72
2022/08/15 13:54:39;;;;;;;9.27;6.45;;;;;;;;;;5088051;28;20408;-72
2022/08/15 13:57:14;;;;;;;7.95;5.95;;;;;;;;;;5091341;28;20045;-75
2022/08/15 13:59:41;;;;;;;7.97;5.93;;;;;;;;;;5091755;28;20903;-77
2022/08/15 14:02:10;;;;;;;7.60;5.38;;;;;;;;;;5092247;28;20056;-76
2022/08/15 14:04:58;;;;;;;4.78;4.38;;;;;;;;;;5085860;28;20050;-76
2022/08/15 14:07:25;;;;;;;7.32;4.78;;;;;;;;;;5074180;28;20497;-78
2022/08/15 14:10:23;;;;;;;7.97;5.90;;;;;;;;;;5076918;28;20064;-74
2022/08/15 14:13:10;;;;;;;8.82;5.75;;;;;;;;;;5088363;28;20514;-74
2022/08/15 14:15:43;;;;;;;6.88;5.03;;;;;;;;;;5094326;28;20048;-75
2022/08/15 14:18:30;;;;;;;11.25;5.50;;;;;;;;;;5080489;28;20056;-74
2022/08/15 14:21:16;;;;;;;6.78;5.40;;;;;;;;;;5087698;28;20064;-72
2022/08/15 14:23:53;;;;;;;8.30;6.30;;;;;;;;;;5093937;28;20082;-71
2022/08/15 14:26:20;;;;;;;11.27;6.35;;;;;;;;;;5091205;27;20082;-70
2022/08/15 14:29:08;;;;;;;7.07;5.30;;;;;;;;;;5087475;28;20474;-69
2022/08/15 14:31:35;;;;;;;9.50;7.05;;;;;;;;;;5092017;28;20503;-72
2022/08/15 14:34:03;;;;;;;8.65;5.80;;;;;;;;;;5090188;28;20531;-70
2022/08/15 14:36:50;;;;;;;8.63;5.40;;;;;;;;;;5088250;28;20051;-69
2022/08/15 14:39:21;;;;;;;8.38;5.93;;;;;;;;;;5095794;28;20176;-72
2022/08/15 14:41:48;;;;;;;11.85;7.03;;;;;;;;;;5091113;28;20053;-70
2022/08/15 14:44:19;;;;;;;8.63;5.70;;;;;;;;;;5087276;28;20060;-71
2022/08/15 14:47:06;;;;;;;8.27;7.38;;;;;;;;;;5079183;28;20056;-70
2022/08/15 14:49:36;;;;;;;12.68;7.75;;;;;;;;;;5072694;28;21027;-70
2022/08/15 14:52:23;;;;;;;19.52;6.70;;;;;;;;;;5085219;28;20052;-72
2022/08/15 14:54:53;;;;;;;9.20;6.65;;;;;;;;;;5089575;28;20519;-71
2022/08/15 14:57:22;;;;;;;8.80;5.80;;;;;;;;;;5088017;28;20052;-74
2022/08/15 14:59:51;;;;;;;8.07;5.82;;;;;;;;;;5092085;28;20059;-74
2022/08/15 15:02:33;;;;;;;10.48;6.70;;;;;;;;;;5089253;28;20052;-72
2022/08/15 15:05:01;;;;;;;7.57;6.20;;;;;;;;;;5090498;28;20478;-74
2022/08/15 15:07:32;;;;;;;7.75;6.95;;;;;;;;;;5084439;28;20073;-77
2022/08/15 15:10:19;;;;;;;11.00;7.35;;;;;;;;;;5089393;28;20045;-78
2022/08/15 15:12:51;;;;;;;8.65;6.60;;;;;;;;;;5087303;28;20060;-73
2022/08/15 15:15:18;;;;;;;6.88;6.00;;;;;;;;;;5095491;28;20103;-74
2022/08/15 15:17:46;;;;;;;7.20;6.32;;;;;;;;;;5088236;28;20053;-73
2022/08/15 15:20:16;;;;;;;8.40;6.55;;;;;;;;;;5094475;28;20052;-73
2022/08/15 15:22:46;;;;;;;9.45;6.80;;;;;;;;;;5086777;28;20057;-72
2022/08/15 15:25:13;;;;;;;8.02;6.20;;;;;;;;;;5076507;28;20056;-72
2022/08/15 15:27:42;;;;;;;6.90;6.15;;;;;;;;;;5088320;28;20061;-71
2022/08/15 15:30:26;;;;;;;8.00;6.10;;;;;;;;;;5084702;28;20079;-72
2022/08/15 15:32:53;;;;;;;15.35;7.43;;;;;;;;;;5093874;28;20106;-71
2022/08/15 15:35:20;;;;;;;8.50;6.85;;;;;;;;;;5083519;28;20059;-71
2022/08/15 15:37:48;;;;;;;7.45;6.72;;;;;;;;;;5090918;28;20053;-72
2022/08/15 15:40:17;;;;;;;8.15;7.30;;;;;;;;;;5091872;28;20087;-73
2022/08/15 15:42:48;;;;;;;12.63;7.07;;;;;;;;;;5093089;28;20056;-72
2022/08/15 15:45:14;;;;;;;8.70;7.50;;;;;;;;;;5087715;28;20055;-72
2022/08/15 15:47:42;;;;;;;14.38;8.98;;;;;;;;;;5081548;28;20056;-72
2022/08/15 15:50:28;;;;;;;9.70;8.32;;;;;;;;;;5086499;28;20423;-71